• Join FlightAware (Why Join?)
  • Login
  • US Flag 
04:41PM EDT


 

Airport Tracker/Info


-or-


 

Live Flight TrackerFlight Track Log ✈ FDX760 ✈ 04-Apr-2013 ✈ KMEM - KEWR

Flight Track Log - Related Links

Times and Time Zones

All times are in EDT time to prevent confusion due to time zone crossing. See the FDX760 flight status page for this flight to view local times or setup timezone preferences in your user account.

Time Position Orientation Groundspeed Altitude Reporting Facility
EDT Latitude Longitude Course Direction KTS MPH feet Rate Location/Type
04:56PM 35.0500 -89.9667 15° North 173 199 1,800  Level KMEM
04:57PM 35.1000 -89.9500 15° North 252 290 4,200 3,720 Climbing KMEM
04:58PM 35.1500 -89.9000 39° Northeast 272 313 8,200 4,320 Climbing KMEM
04:58PM 35.1503 -89.8644 89° East 293 337 10,200 4,080 Climbing Memphis Center
04:59PM 35.1622 -89.7628 82° East 324 373 13,900 2,760 Climbing Memphis Center
05:00PM 35.1783 -89.6458 80° East 332 382 15,800 2,040 Climbing Memphis Center
05:01PM 35.1922 -89.5289 82° East 365 420 18,000 2,940 Climbing Memphis Center
05:02PM 35.2058 -89.3964 83° East 387 445 21,700 2,460 Climbing Memphis Center
05:03PM 35.2214 -89.2592 82° East 396 456 23,000 780 Climbing Memphis Center
05:04PM 35.2453 -89.1239 78° East 407 468 23,300 1,140 Climbing Memphis Center
05:05PM 35.2833 -88.9758 72° East 437 503 25,300 2,280 Climbing Memphis Center
05:06PM 35.3292 -88.8047 72° East 466 536 27,900 2,880 Climbing Memphis Center
05:07PM 35.3750 -88.6408 71° East 491 565 31,100 2,760 Climbing Memphis Center
05:08PM 35.4269 -88.4817 68° East 491 565 33,500 1,440 Climbing Memphis Center
05:09PM 35.4850 -88.3222 66° East 496 571 34,000 420 Climbing Memphis Center
05:10PM 35.5428 -88.1628 66° East 502 578 34,400 960 Climbing Memphis Center
05:11PM 35.5903 -88.0261 67° East 495 570 36,000 1,500 Climbing Memphis Center
05:12PM 35.6475 -87.8636 67° East 512 589 37,400 1,320 Climbing Memphis Center
05:13PM 35.7067 -87.6956 67° East 512 589 38,700 780 Climbing Memphis Center
05:14PM 35.7636 -87.5325 67° East 518 596 39,000 120 Climbing Memphis Center
05:15PM 35.8360 -87.3300 66° East 525 604 39,000  Level FlightAware
05:16PM 35.8750 -87.2190 67° East 527 606 39,000  Level FlightAware
05:17PM 35.9170 -87.0980 67° East 526 605 39,000  Level FlightAware
05:17PM 35.9539 -86.9905 67° East 525 604 39,000  Level FlightAware ADS-B
05:18PM 35.9874 -86.8937 67° East 526 605 39,000  Level FlightAware ADS-B
05:18PM 36.0170 -86.8057 67° East 525 604 39,000  Level FlightAware ADS-B
05:19PM 36.0582 -86.6869 67° East 525 604 39,000  Level FlightAware ADS-B
05:20PM 36.0926 -86.5847 67° East 524 603 39,000  Level FlightAware ADS-B
05:20PM 36.1234 -86.4934 67° East 525 604 39,000  Level FlightAware ADS-B
05:21PM 36.1537 -86.4047 67° East 526 605 39,000  Level FlightAware ADS-B
05:21PM 36.1813 -86.3216 68° East 527 606 39,000  Level FlightAware ADS-B
05:22PM 36.2157 -86.2210 67° East 529 609 39,000  Level FlightAware ADS-B
05:23PM 36.2524 -86.1090 68° East 529 609 39,000  Level FlightAware ADS-B
05:23PM 36.2819 -86.0220 67° East 531 611 39,000  Level FlightAware ADS-B
05:24PM 36.3114 -85.9316 68° East 532 612 39,000  Level FlightAware ADS-B
05:24PM 36.3486 -85.8188 68° East 533 613 39,000  Level FlightAware ADS-B
05:25PM 36.3920 -85.6890 67° East 535 616 39,000  Level FlightAware
05:25PM 36.3983 -85.6686 69° East 536 617 39,000  Level FlightAware ADS-B
05:26PM 36.4276 -85.5805 68° East 536 617 39,000  Level FlightAware ADS-B
05:26PM 36.4567 -85.4920 68° East 537 618 39,000  Level FlightAware ADS-B
05:27PM 36.4971 -85.3690 68° East 538 619 39,000  Level FlightAware ADS-B
05:28PM 36.5263 -85.2775 68° East 538 619 39,000  Level FlightAware ADS-B
05:28PM 36.5568 -85.1830 68° East 538 619 39,000  Level FlightAware ADS-B
05:29PM 36.5855 -85.0941 68° East 538 619 39,000  Level FlightAware ADS-B
05:29PM 36.6292 -84.9590 68° East 539 620 39,000  Level FlightAware ADS-B
05:30PM 36.6572 -84.8728 68° East 539 620 39,000  Level FlightAware ADS-B
05:31PM 36.6927 -84.7603 68° East 539 620 39,000  Level FlightAware ADS-B
05:31PM 36.7217 -84.6707 68° East 541 623 39,000  Level FlightAware ADS-B
05:32PM 36.7498 -84.5809 69° East 541 623 39,000  Level FlightAware ADS-B
05:32PM 36.7776 -84.4936 68° East 542 624 39,000  Level FlightAware ADS-B
05:33PM 36.8057 -84.4037 69° East 542 624 39,000  Level FlightAware ADS-B
05:33PM 36.8331 -84.3162 69° East 543 625 39,000  Level FlightAware ADS-B
05:34PM 36.8620 -84.2254 68° East 544 626 39,000  Level FlightAware ADS-B
05:34PM 36.8903 -84.1350 69° East 544 626 39,000  Level FlightAware ADS-B
05:35PM 36.9211 -84.0354 69° East 545 627 39,000  Level FlightAware ADS-B
05:35PM 36.9503 -83.9414 69° East 546 628 39,000  Level FlightAware ADS-B
05:36PM 36.9818 -83.8385 69° East 546 628 39,000  Level FlightAware ADS-B
05:36PM 37.0099 -83.7499 68° East 548 631 39,000  Level FlightAware ADS-B
05:36PM 37.0100 -83.7469 69° East 543 625 39,000  Level Indianapolis Center
05:37PM 37.0713 -83.5485 69° East 549 632 39,000  Level FlightAware ADS-B
05:38PM 37.0991 -83.4591 69° East 553 636 39,000  Level FlightAware ADS-B
05:38PM 37.1272 -83.3664 69° East 554 638 39,000  Level FlightAware ADS-B
05:39PM 37.1601 -83.2554 70° East 554 638 39,000  Level FlightAware ADS-B
05:40PM 37.1922 -83.1506 69° East 553 636 39,000  Level FlightAware ADS-B
05:40PM 37.2193 -83.0608 69° East 552 635 39,000  Level FlightAware ADS-B
05:41PM 37.2466 -82.9682 70° East 551 634 39,000  Level FlightAware ADS-B
05:41PM 37.2782 -82.8634 69° East 551 634 39,000 -120 Level FlightAware ADS-B
05:42PM 37.3090 -82.7587 70° East 549 632 38,900  Descending FlightAware ADS-B
05:43PM 37.3448 -82.6395 69° East 549 632 39,000  Climbing FlightAware ADS-B
05:43PM 37.3483 -82.6283 70° East 548 631 38,900  Descending Indianapolis Center
05:44PM 37.4011 -82.4483 70° East 545 627 39,000  Climbing Indianapolis Center
05:45PM 37.4547 -82.2675 70° East 548 631 39,000  Level Indianapolis Center
05:46PM 37.5083 -82.0844 70° East 555 639 39,000  Level Indianapolis Center
05:47PM 37.5908 -81.7921 70° East 564 649 39,100  Climbing FlightAware ADS-B
05:48PM 37.6201 -81.6899 70° East 565 650 39,000 -120 Descending FlightAware ADS-B
05:49PM 37.6738 -81.5040 70° East 565 650 39,000  Level FlightAware ADS-B
05:50PM 37.7239 -81.3303 70° East 564 649 39,000 -60 Level Indianapolis Center
05:51PM 37.7819 -81.1094 72° East 564 649 38,900  Descending Indianapolis Center
05:52PM 37.7933 -80.9189 86° East 553 636 39,000  Climbing Indianapolis Center
05:53PM 37.8072 -80.7278 85° East 557 641 39,000  Level Indianapolis Center
05:54PM 37.8206 -80.5000 86° East 556 640 39,000  Level Washington Center
05:55PM 37.8344 -80.3036 85° East 542 624 39,000  Level Washington Center
05:56PM 37.8464 -80.1072 86° East 548 631 39,000  Level Washington Center
05:57PM 37.8572 -79.9289 86° East 559 643 39,000  Level Washington Center
05:58PM 37.8703 -79.7297 85° East 559 643 39,000  Level Washington Center
05:59PM 37.8811 -79.5358 85° East 559 643 39,000  Level Washington Center
06:00PM 37.8917 -79.3364 81° East 564 649 39,000  Level Washington Center
06:01PM 37.9017 -79.1419 82° East 564 649 39,000  Level Washington Center
06:02PM 37.9242 -78.9431 60° Northeast 564 649 39,000  Level Washington Center
06:03PM 37.9483 -78.7464 58° Northeast 564 649 39,000  Level Washington Center
06:04PM 37.9670 -78.5550 85° East 567 652 39,000  Level FlightAware
06:05PM 37.9860 -78.3980 81° East 567 652 39,000  Level FlightAware
06:05PM 37.9990 -78.2800 82° East 567 652 39,000  Level FlightAware
06:06PM 38.0310 -78.1350 74° East 576 663 39,000  Level FlightAware
06:07PM 38.0980 -77.9860 60° Northeast 578 665 39,000  Level FlightAware
06:08PM 38.1510 -77.8800 58° Northeast 577 664 39,000  Level FlightAware
06:08PM 38.2130 -77.7530 58° Northeast 578 665 39,000  Level FlightAware
06:09PM 38.2740 -77.6320 57° Northeast 579 666 39,000  Level FlightAware
06:10PM 38.3310 -77.5170 58° Northeast 580 667 39,000  Level FlightAware
06:10PM 38.3900 -77.3950 58° Northeast 582 670 39,000  Level FlightAware
06:11PM 38.4260 -77.3220 58° Northeast 582 670 39,000 -360 Level FlightAware
06:12PM 38.5100 -77.1500 58° Northeast 586 674 38,500 -1,860 Descending FlightAware
06:13PM 38.5720 -77.0200 59° Northeast 592 681 36,100 -2,400 Descending FlightAware
06:13PM 38.6220 -76.9190 58° Northeast 568 654 35,300 -2,040 Descending FlightAware
06:14PM 38.6850 -76.7900 58° Northeast 551 634 33,400 -2,640 Descending FlightAware
06:15PM 38.7560 -76.6890 48° Northeast 541 623 31,400 -2,280 Descending FlightAware
06:16PM 38.8570 -76.5700 43° Northeast 528 608 29,600 -2,100 Descending FlightAware
06:16PM 38.9466 -76.4662 42° Northeast 513 590 28,100 -1,980 Descending FlightAware ADS-B
06:17PM 39.0019 -76.4040 41° Northeast 501 577 27,200 -900 Descending FlightAware ADS-B
06:17PM 39.0712 -76.3226 42° Northeast 481 554 27,000 -180 Descending FlightAware ADS-B
06:18PM 39.1225 -76.2631 42° Northeast 481 554 27,000  Level FlightAware ADS-B
06:18PM 39.1745 -76.2032 42° Northeast 481 554 27,000  Level FlightAware ADS-B
06:19PM 39.2250 -76.1433 43° Northeast 481 554 27,000  Level FlightAware ADS-B
06:20PM 39.2757 -76.0834 42° Northeast 480 552 27,000 -1,080 Level FlightAware ADS-B
06:20PM 39.3305 -76.0191 42° Northeast 483 556 25,900 -1,800 Descending FlightAware ADS-B
06:21PM 39.3842 -75.9557 42° Northeast 469 540 25,000 -1,620 Descending FlightAware ADS-B
06:21PM 39.4344 -75.8956 43° Northeast 460 529 24,200 -1,620 Descending FlightAware ADS-B
06:22PM 39.4823 -75.8388 42° Northeast 449 517 23,300 -1,620 Descending FlightAware ADS-B
06:22PM 39.5303 -75.7833 42° Northeast 440 506 22,500 -1,560 Descending FlightAware ADS-B
06:23PM 39.5780 -75.7274 42° Northeast 427 491 21,700 -1,440 Descending FlightAware ADS-B
06:23PM 39.6227 -75.6744 42° Northeast 418 481 21,000 -1,500 Descending FlightAware ADS-B
06:24PM 39.6660 -75.6227 43° Northeast 410 472 20,200 -1,620 Descending FlightAware ADS-B
06:24PM 39.7105 -75.5690 43° Northeast 400 460 19,300 -1,620 Descending FlightAware ADS-B
06:25PM 39.7530 -75.5164 44° Northeast 393 452 18,500 -1,740 Descending FlightAware ADS-B
06:25PM 39.7949 -75.4669 42° Northeast 390 449 17,500 -1,860 Descending FlightAware ADS-B
06:26PM 39.8354 -75.4177 43° Northeast 384 442 16,600 -1,680 Descending FlightAware ADS-B
06:27PM 39.8837 -75.3594 43° Northeast 371 427 15,600 -1,620 Descending FlightAware ADS-B
06:27PM 39.9278 -75.3059 43° Northeast 370 426 14,700 -1,500 Descending FlightAware ADS-B
06:28PM 39.9656 -75.2605 43° Northeast 365 420 14,000 -1,500 Descending FlightAware ADS-B
06:28PM 40.0038 -75.2144 43° Northeast 359 413 13,200 -1,500 Descending FlightAware ADS-B
06:29PM 40.0423 -75.1660 44° Northeast 347 399 12,400 -1,440 Descending FlightAware ADS-B
06:29PM 40.0793 -75.1209 43° Northeast 335 386 11,700 -1,380 Descending FlightAware ADS-B
06:30PM 40.1138 -75.0805 42° Northeast 325 374 11,000 -1,320 Descending FlightAware ADS-B
06:30PM 40.1452 -75.0402 44° Northeast 314 361 10,400 -1,260 Descending FlightAware ADS-B
06:31PM 40.1660 -75.0142 44° Northeast 307 353 10,000 -1,200 Descending FlightAware ADS-B
06:31PM 40.1815 -74.9954 43° Northeast 301 346 9,700 -1,020 Descending FlightAware ADS-B
06:31PM 40.1970 -74.9768 43° Northeast 299 344 9,500 -1,020 Descending FlightAware ADS-B
06:31PM 40.2134 -74.9570 43° Northeast 300 345 9,200 -1,140 Descending FlightAware ADS-B
06:32PM 40.2310 -74.9362 42° Northeast 300 345 8,900 -1,260 Descending FlightAware ADS-B
06:32PM 40.2428 -74.9215 44° Northeast 299 344 8,600 -1,140 Descending FlightAware ADS-B
06:32PM 40.2528 -74.9090 44° Northeast 298 343 8,500 -900 Descending FlightAware ADS-B
06:32PM 40.2627 -74.8960 45° Northeast 299 344 8,300 -1,200 Descending FlightAware ADS-B
06:32PM 40.2763 -74.8758 49° Northeast 298 343 8,000 -1,020 Descending FlightAware ADS-B
06:33PM 40.2921 -74.8528 48° Northeast 298 343 7,800 -600 Descending FlightAware ADS-B
06:33PM 40.3065 -74.8328 47° Northeast 299 344 7,700 -780 Descending FlightAware ADS-B
06:33PM 40.3207 -74.8129 47° Northeast 296 341 7,400 -1,200 Descending FlightAware ADS-B
06:33PM 40.3350 -74.7920 48° Northeast 294 338 7,100 -960 Descending FlightAware ADS-B
06:34PM 40.3501 -74.7711 47° Northeast 294 338 6,900 -960 Descending FlightAware ADS-B
06:34PM 40.3650 -74.7504 47° Northeast 291 335 6,600 -1,080 Descending FlightAware ADS-B
06:34PM 40.3779 -74.7325 47° Northeast 291 335 6,400 -1,020 Descending FlightAware ADS-B
06:34PM 40.3932 -74.7121 45° Northeast 293 337 6,100 -1,080 Descending FlightAware ADS-B
06:35PM 40.4106 -74.6875 47° Northeast 291 335 5,800 -720 Descending FlightAware ADS-B
06:35PM 40.4175 -74.6793 42° Northeast 291 335 5,800  Level FlightAware ADS-B
06:35PM 40.4220 -74.6753 34° Northeast 289 333 5,800  Level FlightAware ADS-B
06:35PM 40.4266 -74.6718 30° Northeast 288 331 5,800  Level FlightAware ADS-B
06:35PM 40.4320 -74.6688 23° Northeast 286 329 5,800  Level FlightAware ADS-B
06:35PM 40.4389 -74.6655 20° North 284 327 5,800  Level FlightAware ADS-B
06:35PM 40.4457 -74.6636 12° North 282 325 5,800  Level FlightAware ADS-B
06:36PM 40.4673 -74.6592 North 282 325 5,800  Level FlightAware ADS-B
06:36PM 40.4887 -74.6539 11° North 282 325 5,800  Level FlightAware ADS-B
06:36PM 40.5189 -74.6443 14° North 284 327 5,800  Level FlightAware ADS-B
06:36PM 40.5381 -74.6386 13° North 282 325 5,800  Level FlightAware ADS-B
06:37PM 40.5789 -74.6276 12° North 282 325 5,800  Level FlightAware ADS-B
06:37PM 40.6139 -74.6184 11° North 281 323 5,800  Level FlightAware ADS-B
06:38PM 40.6391 -74.6116 12° North 283 326 5,800  Level FlightAware ADS-B
06:38PM 40.6598 -74.6060 12° North 285 328 5,800  Level FlightAware ADS-B
06:38PM 40.6905 -74.5979 11° North 284 327 5,800  Level FlightAware ADS-B
06:39PM 40.7290 -74.5880 11° North 283 326 5,800  Level FlightAware
06:39PM 40.7411 -74.5843 13° North 285 328 5,800  Level FlightAware ADS-B
06:39PM 40.7627 -74.5784 12° North 267 307 5,800  Level FlightAware ADS-B
06:40PM 40.7901 -74.5713 11° North 256 295 5,800  Level FlightAware ADS-B
06:40PM 40.8220 -74.5630 11° North 245 282 5,800 -180 Level FlightAware
06:40PM 40.8373 -74.5583 13° North 245 282 5,700 -600 Descending FlightAware ADS-B
06:41PM 40.8800 -74.5457 13° North 224 258 5,300 -780 Descending FlightAware ADS-B
06:41PM 40.8980 -74.5432 North 217 250 5,000 -480 Descending FlightAware ADS-B
06:42PM 40.9390 -74.5270 17° North 221 254 4,800 -240 Descending FlightAware
06:43PM 40.9490 -74.5080 55° Northeast 222 255 4,800  Level FlightAware
06:43PM 40.9630 -74.4810 56° Northeast 222 255 4,800 180 Level FlightAware
06:43PM 41.0000 -74.4667 56° Northeast 221 254 5,000 120 Climbing New York TRACON
06:44PM 41.0500 -74.4333 27° Northeast 217 250 5,000  Level New York TRACON
06:45PM 41.0833 -74.3667 27° Northeast 225 259 5,000  Level New York TRACON
06:46PM 41.1000 -74.2833 182° South 221 254 5,000 -60 Level New York TRACON
06:47PM 41.0833 -74.2167 210° Southwest 215 247 4,900 -540 Descending New York TRACON
06:48PM 41.0333 -74.1667 203° Southwest 202 232 4,000 -420 Descending New York TRACON
06:50PM 40.9490 -74.0960 27° Northeast 192 221 3,800 -120 Descending FlightAware
06:51PM 40.9190 -74.0790 157° South 190 219 3,800 -780 Level FlightAware
06:52PM 40.8930 -74.0800 182° South 182 209 2,900 -1,140 Descending FlightAware
06:52PM 40.8740 -74.0760 171° South 168 193 2,800 -180 Descending FlightAware
06:52PM 40.8554 -74.0733 174° South 170 196 2,800  Level FlightAware ADS-B
06:53PM 40.8417 -74.0709 172° South 172 198 2,800  Level FlightAware ADS-B
06:53PM 40.8322 -74.0695 174° South 171 197 2,800  Level FlightAware ADS-B
06:53PM 40.8290 -74.0704 192° South 169 194 2,800  Level FlightAware ADS-B
06:53PM 40.8258 -74.0728 210° Southwest 167 192 2,800 -420 Level FlightAware ADS-B
06:53PM 40.8204 -74.0798 224° Southwest 165 190 2,700 -960 Descending FlightAware ADS-B
06:53PM 40.8186 -74.0819 221° Southwest 165 190 2,600 -1,500 Descending FlightAware ADS-B
06:53PM 40.8155 -74.0858 224° Southwest 165 190 2,500 -1,140 Descending FlightAware ADS-B
06:53PM 40.8120 -74.0886 211° Southwest 166 191 2,400 -1,080 Descending FlightAware ADS-B
06:54PM 40.7966 -74.0992 208° Southwest 165 190 2,000 -1,020 Descending FlightAware ADS-B
06:54PM 40.7871 -74.1044 203° Southwest 165 190 1,800 -900 Descending FlightAware ADS-B
06:54PM 40.7766 -74.1110 205° Southwest 165 190 1,600 -780 Descending FlightAware ADS-B
06:54PM 40.7655 -74.1180 206° Southwest 165 190 1,400 -1,020 Descending FlightAware ADS-B
06:55PM 40.7556 -74.1243 206° Southwest 151 174 1,100 -960 Descending FlightAware ADS-B
06:55PM 40.7459 -74.1307 207° Southwest 129 148 900 -780 Descending FlightAware ADS-B
06:55PM 40.7371 -74.1365 207° Southwest 127 146 700 -240 Descending FlightAware ADS-B
06:55PM 40.7333 -74.1333 206° Southwest 129 148 800 360 Climbing New York TRACON